Time;durP1;ratioP1;P1;durP2;ratioP2;P2;SDS_P1;SDS_P2;PMS_P1;PMS_P2;Temp;Humidity;BMP_temperature;BMP_pressure;BME280_temperature;BME280_humidity;BME280_pressure;Samples;Min_cycle;Max_cycle;Signal;HPM_P1;HPM_P2
2021/06/10 01:32:00;;;;;;;31.30;26.58;;;16.80;99.90;;;;;;5032625;23;20051;-73
2021/06/10 01:34:26;;;;;;;32.10;27.65;;;16.70;99.90;;;;;;4972634;28;20042;-73
2021/06/10 01:36:54;;;;;;;31.65;27.38;;;16.70;99.90;;;;;;4972624;28;20055;-74
2021/06/10 01:39:26;;;;;;;30.42;27.15;;;16.60;99.90;;;;;;4956947;28;20035;-74
2021/06/10 01:41:53;;;;;;;30.67;27.38;;;16.60;99.90;;;;;;4953898;28;20046;-74
2021/06/10 01:44:22;;;;;;;35.90;28.02;;;16.60;99.90;;;;;;4969784;28;20039;-74
2021/06/10 01:46:50;;;;;;;36.00;29.55;;;16.60;99.90;;;;;;4954109;28;20046;-74
2021/06/10 01:49:17;;;;;;;33.35;28.27;;;16.60;99.90;;;;;;4953889;28;20051;-74
2021/06/10 01:51:45;;;;;;;29.05;25.90;;;16.60;99.90;;;;;;4954168;28;20396;-73
2021/06/10 01:54:13;;;;;;;35.05;27.45;;;16.60;99.90;;;;;;4954552;28;20035;-73
2021/06/10 01:56:41;;;;;;;33.58;28.75;;;16.60;99.90;;;;;;4964544;28;20042;-73
2021/06/10 01:59:10;;;;;;;32.17;27.05;;;16.50;99.90;;;;;;4960434;28;20054;-74
2021/06/10 02:01:37;;;;;;;31.35;27.75;;;16.50;99.90;;;;;;4954499;28;20354;-73
2021/06/10 02:04:05;;;;;;;31.55;27.02;;;16.50;99.90;;;;;;4970902;28;20354;-73
2021/06/10 02:06:33;;;;;;;34.50;28.05;;;16.50;99.90;;;;;;4962385;28;20043;-73
2021/06/10 02:09:00;;;;;;;29.40;26.15;;;16.40;99.90;;;;;;4953768;28;20039;-73
2021/06/10 02:11:26;;;;;;;30.88;25.45;;;16.40;99.90;;;;;;4954431;28;20058;-73
2021/06/10 02:13:53;;;;;;;30.55;26.38;;;16.30;99.90;;;;;;4957625;28;20047;-73
2021/06/10 02:16:20;;;;;;;27.40;24.38;;;16.30;99.90;;;;;;4968745;28;20046;-73
2021/06/10 02:18:48;;;;;;;29.60;26.42;;;16.20;99.90;;;;;;4954511;28;20038;-74
2021/06/10 02:21:15;;;;;;;32.72;25.40;;;16.20;99.90;;;;;;4962570;28;20050;-74
2021/06/10 02:23:44;;;;;;;30.65;25.90;;;16.20;99.90;;;;;;4968611;28;20043;-74
2021/06/10 02:26:11;;;;;;;29.75;25.88;;;16.20;99.90;;;;;;4972304;28;20031;-74
2021/06/10 02:28:39;;;;;;;30.13;25.58;;;16.20;99.90;;;;;;4963511;28;20046;-74
2021/06/10 02:31:08;;;;;;;29.67;26.38;;;16.10;99.90;;;;;;4953196;28;20397;-74
2021/06/10 02:33:37;;;;;;;29.83;25.27;;;16.10;99.90;;;;;;4954213;28;20035;-74
2021/06/10 02:36:09;;;;;;;31.73;27.15;;;16.10;99.90;;;;;;4963437;28;20408;-74
2021/06/10 02:38:39;;;;;;;32.53;27.52;;;16.10;99.90;;;;;;4958098;28;20034;-74
2021/06/10 02:41:06;;;;;;;34.50;28.25;;;16.10;99.90;;;;;;4951264;28;20038;-74
2021/06/10 02:43:33;;;;;;;31.98;28.27;;;16.10;99.90;;;;;;4951481;28;20057;-74
2021/06/10 02:46:01;;;;;;;34.08;27.25;;;16.00;99.90;;;;;;4967406;28;20043;-74
2021/06/10 02:48:29;;;;;;;37.42;28.17;;;16.10;99.90;;;;;;4972002;28;20049;-74
2021/06/10 02:50:58;;;;;;;28.15;25.00;;;16.10;99.90;;;;;;4967833;28;20027;-74
2021/06/10 02:53:27;;;;;;;25.77;22.75;;;16.00;99.90;;;;;;4963641;28;20035;-74
2021/06/10 02:55:56;;;;;;;24.33;21.67;;;15.90;99.90;;;;;;4958771;28;20385;-74
2021/06/10 02:58:23;;;;;;;24.52;20.50;;;15.80;99.90;;;;;;4957798;28;20428;-74
2021/06/10 03:00:49;;;;;;;24.08;21.58;;;15.70;99.90;;;;;;4973994;28;20042;-74
2021/06/10 03:03:16;;;;;;;24.08;21.27;;;15.70;99.90;;;;;;4977029;28;20030;-74
2021/06/10 03:05:45;;;;;;;23.27;20.88;;;15.60;99.90;;;;;;4960273;28;20420;-74
2021/06/10 03:08:14;;;;;;;23.17;20.48;;;15.50;99.90;;;;;;4957593;28;20039;-74
2021/06/10 03:10:41;;;;;;;24.90;21.75;;;15.50;99.90;;;;;;4957476;28;20047;-74
2021/06/10 03:13:07;;;;;;;24.52;21.00;;;15.40;99.90;;;;;;4957013;28;20039;-74
2021/06/10 03:15:35;;;;;;;25.45;20.92;;;15.20;99.90;;;;;;4957729;29;20035;-74
2021/06/10 03:18:02;;;;;;;27.27;22.20;;;15.20;99.90;;;;;;4963062;28;20477;-74
2021/06/10 03:20:29;;;;;;;24.85;21.83;;;15.20;99.90;;;;;;4975589;28;20043;-74
2021/06/10 03:22:55;;;;;;;31.38;24.75;;;15.20;99.90;;;;;;4961394;28;20048;-74
2021/06/10 03:25:23;;;;;;;28.50;25.10;;;15.30;99.90;;;;;;4957877;28;20031;-74
2021/06/10 03:27:50;;;;;;;28.45;23.35;;;15.40;99.90;;;;;;4964149;28;20442;-74
2021/06/10 03:30:17;;;;;;;23.92;21.25;;;15.40;99.90;;;;;;4965298;28;20070;-74
2021/06/10 03:32:44;;;;;;;25.38;21.95;;;15.40;99.90;;;;;;4963474;28;20054;-74
2021/06/10 03:35:11;;;;;;;23.08;20.52;;;15.50;99.90;;;;;;4957216;28;20058;-74
2021/06/10 03:37:39;;;;;;;25.15;21.48;;;15.50;99.90;;;;;;4973861;28;20463;-74
2021/06/10 03:40:07;;;;;;;26.38;22.30;;;15.50;99.90;;;;;;4962263;28;20038;-74
2021/06/10 03:42:34;;;;;;;23.33;20.83;;;15.60;99.90;;;;;;4975796;28;20031;-74
2021/06/10 03:45:03;;;;;;;22.13;19.83;;;15.60;99.90;;;;;;4974628;28;20035;-74
2021/06/10 03:47:29;;;;;;;22.70;20.30;;;15.50;99.90;;;;;;4964318;28;20039;-74
2021/06/10 03:49:56;;;;;;;22.48;19.35;;;15.50;99.90;;;;;;4956457;28;20031;-74
2021/06/10 03:52:26;;;;;;;23.27;19.45;;;15.50;99.90;;;;;;4955358;28;20054;-74
2021/06/10 03:54:53;;;;;;;;;;;15.50;99.90;;;;;;4956776;28;20045;-75
2021/06/10 03:57:19;;;;;;;25.20;20.38;;;15.60;99.90;;;;;;4956837;28;19917;-73
2021/06/10 03:59:46;;;;;;;24.35;19.67;;;15.60;99.90;;;;;;4957401;28;21108;-73
2021/06/10 04:02:12;;;;;;;21.42;18.83;;;15.60;99.90;;;;;;4967848;28;20370;-73
2021/06/10 04:04:38;;;;;;;21.15;18.90;;;15.60;99.90;;;;;;4955928;28;20047;-73
2021/06/10 04:07:04;;;;;;;20.30;17.67;;;15.60;99.90;;;;;;4970437;28;20047;-73
2021/06/10 04:09:30;;;;;;;20.45;17.75;;;15.60;99.90;;;;;;4956841;28;20058;-73
2021/06/10 04:11:57;;;;;;;19.00;17.10;;;15.70;99.90;;;;;;4973836;28;20385;-74
2021/06/10 04:14:23;;;;;;;20.83;18.60;;;15.80;99.90;;;;;;4974234;28;20042;-74
2021/06/10 04:16:49;;;;;;;19.58;17.42;;;15.80;99.90;;;;;;4974541;28;20483;-74
2021/06/10 04:19:15;;;;;;;19.25;17.35;;;15.80;99.90;;;;;;4964692;28;20397;-73
2021/06/10 04:21:42;;;;;;;18.67;15.73;;;16.10;99.90;;;;;;4960921;28;20057;-73
2021/06/10 04:24:08;;;;;;;19.08;16.40;;;16.40;99.90;;;;;;4966049;28;20027;-74
2021/06/10 04:26:34;;;;;;;14.35;12.95;;;16.90;99.90;;;;;;4956189;28;20046;-72
2021/06/10 04:29:00;;;;;;;14.65;13.23;;;17.30;99.90;;;;;;4965631;28;20409;-73
2021/06/10 04:31:26;;;;;;;16.90;15.10;;;17.80;99.90;;;;;;4955292;28;20047;-73
2021/06/10 04:33:53;;;;;;;16.35;14.65;;;18.40;99.90;;;;;;4955453;28;20369;-73
2021/06/10 04:36:19;;;;;;;18.08;15.52;;;18.90;99.90;;;;;;4956414;28;20497;-73
2021/06/10 04:38:45;;;;;;;17.33;14.73;;;19.00;99.90;;;;;;4961187;28;20026;-73
2021/06/10 04:41:11;;;;;;;16.98;14.15;;;18.80;99.90;;;;;;4960372;28;20388;-73
2021/06/10 04:43:38;;;;;;;18.48;15.00;;;19.20;99.90;;;;;;4955383;28;20043;-74
2021/06/10 04:46:04;;;;;;;17.10;15.38;;;19.60;99.90;;;;;;4955234;28;20033;-74
2021/06/10 04:48:32;;;;;;;16.05;14.45;;;19.80;99.90;;;;;;4955792;28;20035;-74
2021/06/10 04:50:59;;;;;;;17.13;15.40;;;20.40;99.90;;;;;;4961744;28;20381;-79
2021/06/10 04:53:25;;;;;;;16.48;14.98;;;20.80;99.90;;;;;;4962163;28;20027;-73
2021/06/10 04:55:52;;;;;;;15.90;14.30;;;20.80;99.90;;;;;;4969467;28;20050;-74
2021/06/10 04:58:18;;;;;;;17.65;14.63;;;21.00;99.90;;;;;;4971514;28;20029;-73
2021/06/10 05:00:44;;;;;;;15.95;14.38;;;20.90;99.90;;;;;;4962021;28;20396;-73
2021/06/10 05:03:10;;;;;;;16.60;15.00;;;21.00;99.90;;;;;;4961779;28;20043;-74
2021/06/10 05:05:39;;;;;;;16.17;14.68;;;20.90;99.90;;;;;;4955336;28;20035;-73
2021/06/10 05:08:05;;;;;;;17.25;15.73;;;20.80;99.90;;;;;;4954260;28;20040;-73
2021/06/10 05:10:31;;;;;;;16.90;15.18;;;20.60;99.90;;;;;;4955451;29;20023;-73
2021/06/10 05:12:58;;;;;;;17.55;15.85;;;20.40;99.90;;;;;;4953020;28;20028;-74
2021/06/10 05:15:24;;;;;;;16.90;15.10;;;20.10;99.90;;;;;;4967307;28;20027;-73
2021/06/10 05:17:50;;;;;;;18.38;16.58;;;20.00;99.90;;;;;;4952724;28;20074;-73
2021/06/10 05:20:17;;;;;;;18.77;16.70;;;19.90;99.90;;;;;;4960873;28;20468;-73
2021/06/10 05:22:43;;;;;;;19.77;17.80;;;19.50;99.90;;;;;;4967858;28;20031;-73
2021/06/10 05:25:10;;;;;;;19.73;17.73;;;19.10;99.90;;;;;;4954752;28;20043;-74
2021/06/10 05:27:36;;;;;;;20.27;18.00;;;19.10;99.90;;;;;;4954542;28;20050;-73
2021/06/10 05:30:07;;;;;;;21.92;19.65;;;19.10;99.90;;;;;;4959940;28;20040;-73
2021/06/10 05:32:33;;;;;;;19.30;17.33;;;19.30;99.90;;;;;;4954771;28;20023;-71
2021/06/10 05:34:59;;;;;;;19.42;17.63;;;19.80;99.90;;;;;;4954006;28;20062;-72
2021/06/10 05:37:26;;;;;;;19.00;17.10;;;20.10;99.90;;;;;;4955291;29;20043;-72
2021/06/10 05:39:52;;;;;;;20.27;18.13;;;20.30;99.90;;;;;;4953791;28;20051;-73
2021/06/10 05:42:18;;;;;;;18.17;16.42;;;20.10;99.90;;;;;;4954373;28;20032;-72
2021/06/10 05:44:45;;;;;;;18.60;16.67;;;19.70;99.90;;;;;;4954815;28;20034;-73
2021/06/10 05:47:12;;;;;;;22.75;19.77;;;19.90;99.90;;;;;;4954536;28;20041;-72
2021/06/10 05:49:38;;;;;;;19.98;17.85;;;20.10;99.90;;;;;;4955088;28;20030;-72
2021/06/10 05:52:05;;;;;;;21.13;18.95;;;20.40;99.90;;;;;;4958229;28;20035;-71
2021/06/10 05:54:31;;;;;;;21.73;19.65;;;20.60;99.90;;;;;;4953952;28;20031;-72
2021/06/10 05:57:00;;;;;;;21.55;19.25;;;20.50;99.90;;;;;;4954309;28;20047;-73
2021/06/10 05:59:27;;;;;;;21.77;18.35;;;20.60;99.90;;;;;;4954673;28;20051;-73
2021/06/10 06:01:53;;;;;;;19.70;17.70;;;21.00;99.90;;;;;;4966315;28;20043;-74
2021/06/10 06:04:20;;;;;;;20.08;18.13;;;21.50;99.90;;;;;;4954553;28;20508;-74
2021/06/10 06:06:46;;;;;;;21.83;17.60;;;22.00;99.90;;;;;;4973629;28;20039;-73
2021/06/10 06:09:13;;;;;;;21.20;19.00;;;21.80;99.90;;;;;;4955210;28;20511;-73
2021/06/10 06:11:40;;;;;;;21.50;17.17;;;21.60;99.90;;;;;;4968472;28;20027;-73
2021/06/10 06:14:12;;;;;;;24.65;19.63;;;21.10;99.90;;;;;;4969979;28;20070;-73
2021/06/10 06:16:41;;;;;;;20.85;18.95;;;21.70;99.90;;;;;;4958532;28;20035;-73
2021/06/10 06:19:08;;;;;;;19.95;17.95;;;22.30;99.90;;;;;;4961265;28;20054;-73
2021/06/10 06:21:35;;;;;;;21.17;18.95;;;22.90;99.30;;;;;;4969253;28;20035;-74
2021/06/10 06:24:03;;;;;;;21.25;18.90;;;22.90;97.70;;;;;;4962066;28;20062;-73
2021/06/10 06:26:29;;;;;;;21.85;19.80;;;22.30;98.00;;;;;;4954191;28;20042;-73
2021/06/10 06:28:58;;;;;;;22.70;20.67;;;21.70;99.30;;;;;;4962411;28;20031;-74
2021/06/10 06:31:25;;;;;;;21.63;19.63;;;21.50;99.90;;;;;;4971686;28;20051;-75
2021/06/10 06:33:52;;;;;;;21.77;19.58;;;21.80;99.90;;;;;;4955791;28;20043;-74
2021/06/10 06:36:19;;;;;;;22.00;19.75;;;21.60;99.70;;;;;;4954042;28;20027;-74
2021/06/10 06:38:47;;;;;;;25.80;23.10;;;21.10;99.90;;;;;;4953650;28;20054;-74
2021/06/10 06:41:13;;;;;;;26.63;21.10;;;20.80;99.90;;;;;;4953626;28;20031;-74
2021/06/10 06:43:40;;;;;;;25.25;22.77;;;20.40;99.90;;;;;;4953450;28;20051;-74
2021/06/10 06:46:09;;;;;;;22.33;20.05;;;20.50;99.90;;;;;;4962946;28;20073;-74
2021/06/10 06:48:37;;;;;;;22.25;20.05;;;20.90;99.90;;;;;;4961908;28;20377;-74
2021/06/10 06:51:05;;;;;;;21.90;20.00;;;20.90;99.90;;;;;;4964722;28;20053;-74
2021/06/10 06:53:31;;;;;;;20.63;18.73;;;21.00;99.90;;;;;;4963168;28;20046;-74
2021/06/10 06:55:58;;;;;;;19.05;17.25;;;22.70;99.90;;;;;;4963050;28;20035;-74
2021/06/10 06:58:25;;;;;;;20.50;18.52;;;24.60;95.00;;;;;;4962703;28;20047;-74
2021/06/10 07:00:52;;;;;;;20.60;18.52;;;25.20;91.90;;;;;;4958039;28;20038;-75
2021/06/10 07:03:19;;;;;;;19.15;17.40;;;25.20;91.00;;;;;;4961295;28;20042;-75
2021/06/10 07:05:46;;;;;;;19.10;17.27;;;26.20;88.50;;;;;;4971808;28;20050;-73
2021/06/10 07:08:12;;;;;;;18.60;16.85;;;26.50;84.50;;;;;;4961472;28;20038;-73
2021/06/10 07:10:39;;;;;;;20.15;18.30;;;27.30;81.50;;;;;;4957327;28;20042;-75
2021/06/10 07:13:05;;;;;;;18.95;17.45;;;27.50;78.20;;;;;;4953333;28;20023;-75
2021/06/10 07:15:32;;;;;;;19.73;17.85;;;27.30;74.10;;;;;;4953612;28;20466;-76
2021/06/10 07:17:58;;;;;;;21.27;19.17;;;27.20;76.20;;;;;;4952007;29;20047;-74
2021/06/10 07:20:24;;;;;;;19.50;17.85;;;25.80;78.20;;;;;;4960177;28;20058;-75
2021/06/10 07:22:51;;;;;;;20.13;18.52;;;26.50;75.10;;;;;;4971648;28;20042;-75
2021/06/10 07:25:18;;;;;;;19.02;17.25;;;25.00;78.60;;;;;;4959447;28;20388;-75
2021/06/10 07:27:45;;;;;;;18.45;16.75;;;24.60;80.90;;;;;;4954102;28;20050;-75
2021/06/10 07:30:12;;;;;;;19.15;17.10;;;25.80;78.10;;;;;;4971894;28;20042;-74
2021/06/10 07:32:39;;;;;;;18.23;16.83;;;25.20;76.80;;;;;;4968573;28;20027;-74
2021/06/10 07:35:06;;;;;;;19.05;17.35;;;24.50;79.60;;;;;;4966696;28;20023;-75
2021/06/10 07:37:32;;;;;;;17.17;15.60;;;24.20;80.00;;;;;;4971583;28;20055;-75
2021/06/10 07:39:59;;;;;;;17.92;16.25;;;23.90;81.00;;;;;;4964345;28;20046;-74
2021/06/10 07:42:25;;;;;;;17.67;15.82;;;23.70;82.80;;;;;;4968758;28;20035;-74
2021/06/10 07:44:51;;;;;;;19.50;16.67;;;24.10;81.50;;;;;;4963425;28;20042;-74
2021/06/10 07:47:17;;;;;;;17.27;15.77;;;25.00;78.50;;;;;;4972165;28;20059;-76
2021/06/10 07:49:47;;;;;;;16.95;15.45;;;25.50;78.20;;;;;;4968495;28;20026;-73
2021/06/10 07:52:15;;;;;;;16.10;14.48;;;25.80;76.10;;;;;;4974128;28;20062;-76
2021/06/10 07:54:42;;;;;;;17.00;15.25;;;26.00;74.70;;;;;;4958911;28;20056;-75
2021/06/10 07:57:09;;;;;;;16.98;15.45;;;26.10;75.50;;;;;;4956290;28;20035;-75
2021/06/10 07:59:36;;;;;;;18.45;16.05;;;25.80;75.80;;;;;;4956667;28;20031;-75
2021/06/10 08:02:03;;;;;;;15.80;14.40;;;26.50;74.60;;;;;;4969269;28;20026;-74
2021/06/10 08:04:31;;;;;;;17.48;14.65;;;27.30;72.20;;;;;;4974896;28;20053;-74
2021/06/10 08:06:57;;;;;;;15.02;13.40;;;27.20;72.00;;;;;;4960302;28;20109;-75
2021/06/10 08:09:23;;;;;;;15.50;14.20;;;26.80;71.90;;;;;;4969160;28;20035;-74
2021/06/10 08:11:57;;;;;;;13.88;12.60;;;26.10;72.60;;;;;;4965911;28;20034;-74
2021/06/10 08:14:33;;;;;;;12.90;11.63;;;27.00;72.40;;;;;;4975257;28;20503;-73
2021/06/10 08:17:04;;;;;;;11.82;10.82;;;28.10;69.50;;;;;;4974964;28;20111;-74
2021/06/10 08:19:31;;;;;;;13.30;12.20;;;27.40;70.20;;;;;;4956980;28;20453;-73
2021/06/10 08:21:57;;;;;;;14.02;11.93;;;26.50;70.60;;;;;;4968748;28;20042;-74
2021/06/10 08:24:24;;;;;;;12.82;11.73;;;26.20;72.30;;;;;;4956332;28;20035;-72
2021/06/10 08:26:51;;;;;;;12.27;11.07;;;26.30;71.20;;;;;;4963162;28;20050;-72
2021/06/10 08:29:18;;;;;;;12.35;10.85;;;25.10;74.30;;;;;;4965626;28;20043;-72
2021/06/10 08:31:44;;;;;;;13.27;12.02;;;25.60;74.00;;;;;;4967691;28;20046;-73
2021/06/10 08:34:10;;;;;;;17.85;16.10;;;25.70;75.10;;;;;;4955450;28;20054;-74
2021/06/10 08:36:37;;;;;;;27.05;15.93;;;25.60;74.30;;;;;;4956048;28;20038;-73
2021/06/10 08:39:06;;;;;;;15.95;14.10;;;25.80;75.20;;;;;;4955667;28;20062;-74
2021/06/10 08:41:33;;;;;;;;;;;25.90;74.90;;;;;;4967006;28;20037;-73
2021/06/10 08:44:00;;;;;;;20.20;14.32;;;26.10;72.80;;;;;;4966875;28;19917;-73
2021/06/10 08:46:27;;;;;;;16.20;14.70;;;26.00;73.50;;;;;;4969836;28;20403;-74
2021/06/10 08:48:53;;;;;;;15.40;14.00;;;25.80;74.90;;;;;;4969045;28;20047;-74
2021/06/10 08:51:20;;;;;;;14.90;13.50;;;27.10;71.50;;;;;;4968925;28;20499;-74
2021/06/10 08:53:46;;;;;;;17.17;15.68;;;26.70;70.90;;;;;;4974228;28;20053;-74
2021/06/10 08:56:13;;;;;;;14.68;13.38;;;26.40;71.90;;;;;;4973116;28;20236;-74
2021/06/10 08:58:40;;;;;;;14.88;13.48;;;27.20;71.60;;;;;;4973589;28;20039;-74
2021/06/10 09:01:12;;;;;;;15.07;13.68;;;26.80;71.30;;;;;;4973665;28;20034;-74
2021/06/10 09:03:39;;;;;;;15.82;14.43;;;26.20;73.50;;;;;;4971805;28;20054;-74
2021/06/10 09:06:09;;;;;;;14.75;13.55;;;26.10;72.50;;;;;;4972738;28;20041;-74
2021/06/10 09:08:37;;;;;;;13.65;12.30;;;26.00;72.50;;;;;;4972362;28;20388;-74
2021/06/10 09:11:05;;;;;;;15.55;14.15;;;26.40;73.80;;;;;;4967532;28;20050;-74
2021/06/10 09:13:45;;;;;;;16.10;14.63;;;26.90;72.30;;;;;;4970453;28;20049;-74
2021/06/10 09:16:27;;;;;;;13.77;12.57;;;26.40;72.50;;;;;;4971808;28;20046;-74
2021/06/10 09:19:01;;;;;;;16.10;14.65;;;26.10;72.80;;;;;;4973952;28;20039;-73
2021/06/10 09:21:32;;;;;;;14.50;13.20;;;26.50;72.10;;;;;;4971905;28;20035;-73
2021/06/10 09:24:17;;;;;;;13.50;12.30;;;26.60;72.30;;;;;;4954871;28;20031;-73
2021/06/10 09:26:47;;;;;;;14.73;13.23;;;27.30;70.20;;;;;;4954580;28;20054;-72
2021/06/10 09:29:17;;;;;;;14.30;13.10;;;27.30;69.80;;;;;;4973126;28;20238;-73
2021/06/10 09:31:45;;;;;;;14.57;13.35;;;27.00;70.30;;;;;;4973557;28;20059;-73
2021/06/10 09:34:16;;;;;;;14.77;13.48;;;26.60;71.10;;;;;;4955049;28;20036;-73
2021/06/10 09:36:46;;;;;;;14.38;13.07;;;26.70;71.80;;;;;;4954199;28;20043;-75
2021/06/10 09:39:13;;;;;;;;;;;27.20;70.60;;;;;;4962928;28;20050;-74
2021/06/10 09:41:59;;;;;;;13.98;12.68;;;28.10;68.50;;;;;;4972854;28;19910;-74
2021/06/10 09:45:05;;;;;;;14.82;13.52;;;27.70;68.10;;;;;;4973120;28;20380;-74
2021/06/10 09:47:36;;;;;;;14.02;12.73;;;27.30;69.00;;;;;;4961284;28;20039;-76
2021/06/10 09:50:16;;;;;;;13.60;12.50;;;27.10;70.00;;;;;;4954273;28;20031;-75
2021/06/10 09:52:57;;;;;;;13.88;12.55;;;28.00;68.00;;;;;;4954512;28;20030;-74
2021/06/10 09:55:43;;;;;;;13.73;12.30;;;27.20;68.20;;;;;;4954016;28;20162;-76
2021/06/10 09:58:15;;;;;;;13.95;12.65;;;26.80;69.60;;;;;;4954349;28;20038;-75
2021/06/10 10:00:50;;;;;;;13.57;12.23;;;26.60;70.20;;;;;;4954583;28;20031;-75
2021/06/10 10:03:23;;;;;;;13.30;12.07;;;27.00;68.70;;;;;;4953440;28;20042;-75
2021/06/10 10:05:52;;;;;;;13.27;12.13;;;27.40;68.20;;;;;;4963265;28;20377;-76
2021/06/10 10:08:21;;;;;;;13.43;12.23;;;27.80;66.60;;;;;;4973327;28;20054;-75
2021/06/10 10:10:48;;;;;;;14.25;12.93;;;27.20;67.20;;;;;;4956697;28;20027;-74
2021/06/10 10:13:17;;;;;;;12.30;11.05;;;27.10;68.80;;;;;;4963486;28;20115;-75
2021/06/10 10:15:45;;;;;;;14.60;13.25;;;28.00;65.80;;;;;;4954266;28;20035;-75
2021/06/10 10:18:17;;;;;;;14.13;12.85;;;27.10;67.90;;;;;;4953379;28;20050;-73
2021/06/10 10:20:47;;;;;;;14.82;12.07;;;27.30;67.60;;;;;;4964699;28;20752;-73
2021/06/10 10:23:14;;;;;;;13.95;12.65;;;27.00;67.30;;;;;;4959701;28;20039;-73
2021/06/10 10:25:42;;;;;;;14.50;12.15;;;26.40;66.60;;;;;;4973746;28;20034;-72
2021/06/10 10:28:14;;;;;;;13.68;12.43;;;26.30;68.50;;;;;;4953449;28;20043;-72
2021/06/10 10:30:44;;;;;;;12.90;11.45;;;26.40;68.70;;;;;;4964307;28;20051;-72
2021/06/10 10:33:22;;;;;;;13.30;12.00;;;26.50;67.30;;;;;;4962114;28;20054;-72
2021/06/10 10:35:57;;;;;;;13.57;12.02;;;26.40;68.20;;;;;;4954272;28;20027;-72
2021/06/10 10:38:36;;;;;;;15.23;12.45;;;26.00;67.30;;;;;;4969936;28;20046;-73
2021/06/10 10:41:21;;;;;;;13.07;11.82;;;26.40;67.30;;;;;;4956849;28;20499;-73
2021/06/10 10:44:19;;;;;;;14.23;12.70;;;26.50;67.40;;;;;;4962615;28;20031;-73
2021/06/10 10:47:06;;;;;;;11.30;10.05;;;26.10;67.80;;;;;;4960561;28;20054;-72
2021/06/10 10:49:53;;;;;;;12.73;11.57;;;26.60;66.90;;;;;;4953968;28;20055;-72
2021/06/10 10:52:28;;;;;;;11.65;10.55;;;26.50;65.00;;;;;;4953045;28;20052;-72
2021/06/10 10:55:15;;;;;;;12.93;11.73;;;26.40;63.90;;;;;;4967193;28;20036;-72
2021/06/10 10:57:44;;;;;;;11.25;10.15;;;26.20;65.70;;;;;;4958361;28;20039;-73
2021/06/10 11:00:21;;;;;;;11.90;10.70;;;26.50;66.70;;;;;;4954061;28;20027;-73
2021/06/10 11:03:16;;;;;;;10.48;9.55;;;26.70;64.60;;;;;;4958678;28;20031;-72
2021/06/10 11:05:45;;;;;;;10.13;9.13;;;26.40;62.00;;;;;;4968741;28;20108;-72
2021/06/10 11:08:13;;;;;;;9.68;8.88;;;26.60;61.30;;;;;;4952526;28;20032;-72
2021/06/10 11:10:51;;;;;;;12.30;10.23;;;26.70;62.90;;;;;;4956676;28;20035;-72
2021/06/10 11:13:28;;;;;;;9.60;8.80;;;27.10;62.40;;;;;;4956787;28;20038;-72
2021/06/10 11:16:05;;;;;;;11.18;10.07;;;26.90;60.70;;;;;;4965077;28;20035;-73
2021/06/10 11:18:53;;;;;;;9.55;8.68;;;27.00;58.10;;;;;;4970888;28;20034;-73
2021/06/10 11:21:44;;;;;;;12.30;11.20;;;27.30;58.00;;;;;;4963620;28;20035;-72
2021/06/10 11:24:23;;;;;;;14.38;8.90;;;27.20;60.40;;;;;;4973584;28;20042;-72
2021/06/10 11:27:04;;;;;;;11.80;10.60;;;27.40;61.20;;;;;;4965712;28;20456;-72
2021/06/10 11:29:33;;;;;;;10.25;9.32;;;27.10;56.10;;;;;;4975549;28;20057;-72
2021/06/10 11:32:19;;;;;;;9.88;8.98;;;27.40;57.20;;;;;;4966517;28;20042;-71
2021/06/10 11:34:55;;;;;;;12.27;11.18;;;27.60;58.20;;;;;;4974513;28;20369;-72
2021/06/10 11:37:24;;;;;;;15.20;12.10;;;26.80;58.10;;;;;;4968110;28;20039;-72
2021/06/10 11:39:53;;;;;;;10.15;9.25;;;26.70;56.80;;;;;;4959673;28;20457;-72
2021/06/10 11:42:24;;;;;;;10.15;9.25;;;27.00;58.90;;;;;;4975127;28;20034;-72
2021/06/10 11:44:55;;;;;;;11.10;10.07;;;26.90;57.20;;;;;;4960404;28;20079;-72
2021/06/10 11:47:31;;;;;;;11.63;10.57;;;26.90;55.30;;;;;;4956625;28;20466;-72
2021/06/10 11:49:57;;;;;;;11.18;10.02;;;26.90;56.30;;;;;;4958771;28;20372;-73
2021/06/10 11:52:23;;;;;;;8.82;8.10;;;26.90;56.30;;;;;;4956778;29;20038;-72
2021/06/10 11:55:09;;;;;;;10.48;9.43;;;27.10;56.50;;;;;;4956793;28;20028;-73
2021/06/10 11:57:35;;;;;;;12.90;9.18;;;27.40;53.90;;;;;;4973430;28;20361;-72
2021/06/10 12:00:07;;;;;;;10.13;9.13;;;27.60;54.40;;;;;;4967216;28;20373;-71
2021/06/10 12:02:41;;;;;;;11.07;10.02;;;27.20;55.90;;;;;;4962623;28;20062;-71
2021/06/10 12:05:12;;;;;;;11.07;10.10;;;27.10;55.20;;;;;;4956422;28;20412;-71
2021/06/10 12:07:39;;;;;;;10.68;9.73;;;27.10;54.30;;;;;;4961956;28;20069;-74
2021/06/10 12:10:09;;;;;;;10.70;9.65;;;27.40;55.30;;;;;;4972011;28;20404;-74
2021/06/10 12:12:38;;;;;;;9.57;8.68;;;27.20;54.70;;;;;;4963516;28;20031;-74
2021/06/10 12:15:06;;;;;;;9.45;8.55;;;27.40;54.80;;;;;;4975758;28;20031;-74
2021/06/10 12:17:58;;;;;;;10.27;8.73;;;27.50;54.60;;;;;;4971292;28;20055;-75
2021/06/10 12:20:26;;;;;;;10.10;8.95;;;27.50;53.70;;;;;;4973026;28;20051;-73
2021/06/10 12:22:53;;;;;;;13.25;9.23;;;27.50;54.20;;;;;;4970432;28;20039;-74
2021/06/10 12:25:28;;;;;;;9.43;8.63;;;27.60;53.10;;;;;;4955185;28;20035;-74
2021/06/10 12:27:56;;;;;;;10.35;9.45;;;27.00;53.60;;;;;;4955955;28;20051;-73
2021/06/10 12:30:29;;;;;;;10.35;9.45;;;27.20;54.50;;;;;;4966879;28;20046;-74
2021/06/10 12:33:14;;;;;;;10.18;9.30;;;27.40;54.90;;;;;;4973925;28;20062;-74
2021/06/10 12:35:44;;;;;;;9.77;8.85;;;27.70;53.70;;;;;;4968343;28;20510;-75
2021/06/10 12:38:12;;;;;;;10.18;9.18;;;27.60;52.20;;;;;;4967830;28;20046;-76
2021/06/10 12:40:40;;;;;;;9.13;8.35;;;27.50;52.00;;;;;;4969571;28;20027;-74
2021/06/10 12:43:13;;;;;;;9.15;8.45;;;27.70;52.00;;;;;;4955398;28;20044;-74
2021/06/10 12:45:40;;;;;;;9.65;8.60;;;27.80;51.30;;;;;;4955910;28;20035;-74
2021/06/10 12:48:27;;;;;;;8.82;8.02;;;27.70;50.20;;;;;;4964879;28;20046;-74
2021/06/10 12:51:22;;;;;;;10.80;9.80;;;27.80;50.60;;;;;;4965702;28;20050;-74
2021/06/10 12:54:09;;;;;;;8.98;8.18;;;27.70;54.00;;;;;;4959125;28;20031;-75
2021/06/10 12:56:54;;;;;;;10.50;9.40;;;27.90;53.20;;;;;;4966721;28;20047;-73
2021/06/10 12:59:38;;;;;;;8.82;8.00;;;27.70;53.10;;;;;;4965993;28;20058;-74
2021/06/10 13:02:19;;;;;;;8.40;7.65;;;28.20;53.20;;;;;;4963224;28;20424;-73
2021/06/10 13:04:51;;;;;;;8.50;7.80;;;28.00;51.20;;;;;;4955456;28;20042;-73
2021/06/10 13:07:31;;;;;;;8.93;7.93;;;27.80;51.20;;;;;;4971829;28;20027;-73
2021/06/10 13:10:08;;;;;;;8.45;7.65;;;27.80;51.40;;;;;;4964981;28;20041;-74
2021/06/10 13:12:44;;;;;;;9.70;8.70;;;28.00;52.40;;;;;;4956002;28;20079;-75
2021/06/10 13:15:23;;;;;;;8.05;6.68;;;28.20;53.30;;;;;;4954441;28;20035;-75
2021/06/10 13:18:13;;;;;;;8.63;7.93;;;28.40;52.30;;;;;;4955536;28;20027;-74
2021/06/10 13:20:43;;;;;;;7.93;7.30;;;28.10;52.80;;;;;;4967003;28;20289;-74
2021/06/10 13:23:14;;;;;;;7.32;6.70;;;27.80;52.10;;;;;;4971178;28;20034;-74
2021/06/10 13:25:41;;;;;;;7.55;6.90;;;28.00;50.70;;;;;;4964276;28;20044;-74
2021/06/10 13:28:19;;;;;;;7.82;7.18;;;27.90;51.60;;;;;;4954608;28;20047;-74
2021/06/10 13:30:47;;;;;;;8.05;7.25;;;28.10;50.20;;;;;;4957216;28;20051;-74
2021/06/10 13:33:22;;;;;;;7.22;6.40;;;28.20;50.60;;;;;;4968406;28;20031;-74
2021/06/10 13:35:50;;;;;;;7.10;6.20;;;28.40;50.60;;;;;;4954677;28;20050;-74
2021/06/10 13:38:16;;;;;;;6.93;6.32;;;28.40;49.40;;;;;;4953051;28;20047;-74
2021/06/10 13:40:43;;;;;;;7.53;6.30;;;27.90;50.60;;;;;;4957395;28;20026;-74
2021/06/10 13:43:10;;;;;;;8.20;6.43;;;28.10;51.20;;;;;;4959948;28;20034;-75
2021/06/10 13:45:36;;;;;;;7.60;6.90;;;28.30;50.90;;;;;;4962207;28;20050;-74
2021/06/10 13:48:03;;;;;;;6.22;5.63;;;28.10;51.20;;;;;;4955860;28;20050;-72
2021/06/10 13:50:29;;;;;;;7.50;6.90;;;28.10;51.10;;;;;;4961383;28;20038;-76
2021/06/10 13:52:57;;;;;;;7.00;5.75;;;28.10;50.00;;;;;;4955657;28;20373;-78
2021/06/10 13:55:23;;;;;;;8.55;6.15;;;27.90;50.50;;;;;;4963594;28;20046;-75
2021/06/10 13:57:49;;;;;;;6.97;6.38;;;27.80;50.60;;;;;;4967510;28;20035;-71
2021/06/10 14:00:20;;;;;;;7.32;6.00;;;27.90;50.00;;;;;;4955325;28;20112;-72
2021/06/10 14:02:46;;;;;;;7.28;6.53;;;27.70;50.60;;;;;;4953901;28;20047;-73
2021/06/10 14:05:12;;;;;;;7.13;6.40;;;27.80;49.70;;;;;;4953597;28;20409;-73
2021/06/10 14:07:39;;;;;;;7.05;6.35;;;27.80;50.00;;;;;;4954156;28;20039;-73
2021/06/10 14:10:05;;;;;;;6.72;6.03;;;27.90;50.60;;;;;;4953371;28;20508;-73
2021/06/10 14:12:32;;;;;;;5.90;5.35;;;28.00;51.00;;;;;;4954370;28;20039;-74
2021/06/10 14:14:58;;;;;;;6.88;6.38;;;27.90;49.70;;;;;;4954120;28;20038;-75